Time;durP1;ratioP1;P1;durP2;ratioP2;P2;SDS_P1;SDS_P2;PMS_P1;PMS_P2;Temp;Humidity;BMP_temperature;BMP_pressure;BME280_temperature;BME280_humidity;BME280_pressure;Samples;Min_cycle;Max_cycle;Signal;HPM_P1;HPM_P2
2023/02/24 00:01:17;;;;;;;;;;;10.60;80.30;;;9.19;64.28;100455.34;4989575;28;20007;-86
2023/02/24 00:03:44;;;;;;;;;;;10.50;80.00;;;9.25;64.35;100443.06;4968414;28;19934;-85
2023/02/24 00:06:15;;;;;;;;;;;10.50;80.10;;;9.24;64.32;100441.44;4986362;28;19930;-86
2023/02/24 00:08:42;;;;;;;;;;;10.50;79.90;;;9.23;64.23;100442.47;4987826;28;19929;-85
2023/02/24 00:11:12;;;;;;;;;;;10.50;80.00;;;9.26;63.75;100442.84;4989279;28;19932;-86
2023/02/24 00:13:39;;;;;;;;;;;10.50;79.60;;;9.24;63.52;100430.78;4987868;28;19934;-85
2023/02/24 00:16:07;;;;;;;;;;;10.60;79.30;;;9.25;63.41;100430.59;4977335;28;20401;-86
2023/02/24 00:18:38;;;;;;;;;;;10.60;79.20;;;9.22;63.38;100423.03;4989706;28;19930;-85
2023/02/24 00:21:09;;;;;;;;;;;10.80;79.10;;;9.19;63.45;100426.09;4989702;28;19969;-85
2023/02/24 00:23:39;;;;;;;;;;;10.60;79.10;;;9.19;63.35;100426.09;4992585;28;19926;-86
2023/02/24 00:26:06;;;;;;;;;;;10.70;79.10;;;9.19;63.40;100420.75;4988368;28;20398;-86
2023/02/24 00:28:34;;;;;;;;;;;10.50;79.00;;;9.20;63.61;100416.25;4985604;28;19930;-85
2023/02/24 00:31:05;;;;;;;;;;;10.60;79.00;;;9.22;63.43;100409.72;4989128;28;19937;-85
2023/02/24 00:33:33;;;;;;;;;;;10.60;79.00;;;9.23;63.10;100411.34;4986605;28;19957;-86
2023/02/24 00:36:10;;;;;;;;;;;10.50;79.00;;;9.16;63.14;100409.69;4968875;28;19929;-85
2023/02/24 00:38:38;;;;;;;;;;;10.50;79.00;;;9.18;63.46;100405.00;4969965;28;19929;-86
2023/02/24 00:41:13;;;;;;;;;;;10.50;79.00;;;9.22;63.17;100399.06;4971784;28;19944;-85
2023/02/24 00:43:45;;;;;;;;;;;10.50;79.00;;;9.22;63.00;100396.41;4967767;28;20385;-85
2023/02/24 00:46:15;;;;;;;;;;;10.50;79.00;;;9.26;62.70;100396.81;4989757;28;19930;-86
2023/02/24 00:48:44;;;;;;;;;;;10.50;78.80;;;9.23;62.68;100394.56;4989514;28;19969;-85
2023/02/24 00:51:16;;;;;;;;;;;10.50;78.80;;;9.19;63.16;100394.16;4991894;28;19929;-86
2023/02/24 00:53:44;;;;;;;;;;;10.50;78.80;;;9.13;62.76;100387.00;4993746;28;19937;-86
2023/02/24 00:56:12;;;;;;;;;;;10.40;78.70;;;9.15;62.74;100384.94;4993157;28;20020;-85
2023/02/24 00:58:39;;;;;;;;;;;10.40;78.70;;;9.11;62.89;100385.53;4975503;28;19936;-85
2023/02/24 01:01:13;;;;;;;;;;;10.40;78.80;;;9.10;62.93;100378.59;4983473;28;19934;-86
2023/02/24 01:03:40;;;;;;;;;;;10.40;78.80;;;9.13;62.46;100376.34;4973409;28;19948;-85
2023/02/24 01:06:07;;;;;;;;;;;10.40;78.50;;;9.12;62.29;100382.66;4973925;28;19930;-86
2023/02/24 01:08:39;;;;;;;;;;;10.40;78.40;;;9.13;61.94;100379.00;4965690;28;19932;-85
2023/02/24 01:13:51;;;;;;;;;;;10.30;77.90;;;9.01;62.03;100380.63;4974628;28;20020;-85
2023/02/24 01:16:18;;;;;;;;;;;10.30;78.00;;;9.00;62.32;100379.00;4993311;28;19936;-85
2023/02/24 01:18:46;;;;;;;;;;;10.30;78.20;;;9.03;61.92;100370.63;4991262;28;20020;-86
2023/02/24 01:21:13;;;;;;;;;;;10.30;78.10;;;9.06;61.97;100367.53;4975590;28;20589;-86
2023/02/24 01:23:42;;;;;;;;;;;10.30;78.10;;;9.03;62.05;100363.44;4980093;28;19949;-86
2023/02/24 01:26:09;;;;;;;;;;;10.30;77.90;;;8.98;61.99;100371.22;4980142;28;20421;-86
2023/02/24 01:28:37;;;;;;;;;;;10.30;78.00;;;8.97;62.21;100361.59;4974616;28;19930;-86
2023/02/24 01:31:05;;;;;;;;;;;10.30;77.90;;;8.99;61.93;100364.06;4975399;28;19965;-85
2023/02/24 01:33:36;;;;;;;;;;;10.30;77.80;;;8.95;61.82;100362.81;4993042;28;20012;-85
2023/02/24 01:36:11;;;;;;;;;;;10.20;77.80;;;8.94;62.13;100354.03;4977693;28;20013;-85
2023/02/24 01:38:41;;;;;;;;;;;10.20;77.80;;;8.92;61.99;100361.38;4985583;28;19936;-86
2023/02/24 01:41:12;;;;;;;;;;;10.20;77.80;;;8.82;62.22;100357.47;4992542;28;19933;-86
2023/02/24 01:43:57;;;;;;;;;;;10.20;77.80;;;8.87;62.33;100353.19;4999635;28;19973;-86
2023/02/24 01:46:25;;;;;;;;;;;10.20;78.00;;;8.88;62.01;100354.84;4996562;28;19929;-86
2023/02/24 01:48:54;;;;;;;;;;;10.20;77.80;;;8.89;61.98;100345.84;4975429;28;19929;-86
2023/02/24 01:51:21;;;;;;;;;;;10.20;77.80;;;8.90;62.03;100358.09;4973636;28;20028;-87
2023/02/24 01:53:49;;;;;;;;;;;10.20;77.80;;;8.86;62.16;100343.56;4995974;28;20409;-87
2023/02/24 01:56:18;;;;;;;;;;;10.20;77.80;;;8.84;62.16;100344.81;4990504;28;19929;-87
2023/02/24 01:58:45;;;;;;;;;;;10.20;77.80;;;8.81;62.25;100339.88;4990048;28;20013;-87
2023/02/24 02:01:15;;;;;;;;;;;10.10;78.00;;;8.79;62.27;100345.41;4972113;28;20595;-86
2023/02/24 02:03:43;;;;;;;;;;;10.10;78.10;;;8.72;62.42;100340.06;4973910;28;19929;-86
2023/02/24 02:06:12;;;;;;;;;;;10.10;78.20;;;8.71;62.27;100334.97;4990123;28;20024;-86
2023/02/24 02:08:41;;;;;;;;;;;10.00;78.00;;;8.62;62.07;100334.34;4972617;28;20056;-86
2023/02/24 02:11:12;;;;;;;;;;;10.00;77.90;;;8.67;62.31;100331.06;4979480;28;19930;-85
2023/02/24 02:13:43;;;;;;;;;;;10.00;78.00;;;8.70;61.90;100322.69;4990615;28;19964;-85
2023/02/24 02:16:20;;;;;;;;;;;10.00;77.60;;;8.71;62.05;100311.84;4973465;28;19930;-86
2023/02/24 02:18:55;;;;;;;;;;;10.00;77.80;;;8.68;61.87;100301.63;4992067;28;19936;-86
2023/02/24 02:21:44;;;;;;;;;;;10.00;77.60;;;8.72;61.61;100300.19;4974584;28;20012;-85
2023/02/24 02:24:22;;;;;;;;;;;10.00;77.30;;;8.73;60.92;100295.69;4989858;28;20027;-86
2023/02/24 02:27:19;;;;;;;;;;;10.00;76.90;;;8.74;60.98;100284.88;4991698;28;19984;-85
2023/02/24 02:30:12;;;;;;;;;;;10.00;76.80;;;8.71;60.96;100284.44;4988344;28;19937;-86
2023/02/24 02:33:12;;;;;;;;;;;10.20;76.60;;;8.63;60.92;100282.78;4989784;28;20072;-86
2023/02/24 02:35:45;;;;;;;;;;;10.00;76.40;;;8.58;60.83;100263.97;4958937;28;19926;-86
2023/02/24 02:38:15;;;;;;;;;;;10.00;76.20;;;8.60;60.56;100267.28;4972308;28;19930;-85
2023/02/24 02:40:45;;;;;;;;;;;10.00;76.00;;;8.62;60.30;100259.09;4983876;28;20477;-86
2023/02/24 02:43:17;;;;;;;;;;;10.00;75.80;;;8.58;60.46;100257.84;4991209;28;19937;-86
2023/02/24 02:45:47;;;;;;;;;;;10.00;75.90;;;8.57;60.49;100251.72;4973503;28;19930;-86
2023/02/24 02:48:18;;;;;;;;;;;10.00;75.90;;;8.56;60.33;100255.41;4986740;28;19937;-85
2023/02/24 02:50:49;;;;;;;;;;;10.00;75.80;;;8.51;60.64;100247.22;4973683;28;19929;-85
2023/02/24 02:53:23;;;;;;;;;;;10.00;75.80;;;8.50;60.38;100246.41;4991211;28;19932;-86
2023/02/24 02:55:54;;;;;;;;;;;9.90;75.90;;;8.57;60.02;100249.06;4977641;28;20903;-86
2023/02/24 02:58:25;;;;;;;;;;;9.90;75.60;;;8.52;60.18;100232.91;4989236;28;20012;-85
2023/02/24 03:01:01;;;;;;;;;;;9.90;75.70;;;8.54;60.05;100236.19;4973746;28;19929;-86
2023/02/24 03:03:30;;;;;;;;;;;9.90;75.60;;;8.54;59.90;100230.03;4973721;28;20382;-86
2023/02/24 03:06:03;;;;;;;;;;;9.90;75.40;;;8.53;59.90;100229.22;4991214;28;19940;-86
2023/02/24 03:08:33;;;;;;;;;;;9.90;75.20;;;8.51;59.77;100228.63;4973021;28;19934;-86
2023/02/24 03:11:01;;;;;;;;;;;9.90;75.20;;;8.47;59.85;100220.22;4973276;28;19930;-85
2023/02/24 03:13:31;;;;;;;;;;;9.90;75.20;;;8.48;59.93;100231.66;4987178;28;19926;-86
2023/02/24 03:16:01;;;;;;;;;;;9.90;75.30;;;8.50;59.81;100229.66;4981134;28;19936;-86
2023/02/24 03:18:31;;;;;;;;;;;9.90;75.40;;;8.51;59.76;100223.31;4987032;28;19965;-85
2023/02/24 03:21:06;;;;;;;;;;;9.90;75.20;;;8.51;59.76;100220.66;4990235;28;20292;-84
2023/02/24 03:23:37;;;;;;;;;;;9.90;75.20;;;8.50;59.71;100222.50;4984478;28;20024;-85
2023/02/24 03:26:15;;;;;;;;;;;9.90;75.20;;;8.50;59.52;100222.50;4971653;28;19929;-86
2023/02/24 03:28:49;;;;;;;;;;;9.80;75.10;;;8.48;59.59;100221.03;4973071;28;19964;-85
2023/02/24 03:31:21;;;;;;;;;;;9.90;75.10;;;8.46;59.58;100215.13;4987324;28;19934;-86
2023/02/24 03:33:59;;;;;;;;;;;9.80;75.00;;;8.46;59.38;100215.13;4973209;28;20579;-85
2023/02/24 03:36:28;;;;;;;;;;;9.80;74.90;;;8.45;59.51;100216.97;4969538;23;19970;-76
2023/02/24 03:38:57;;;;;;;;;;;9.80;74.80;;;8.42;59.64;100205.91;4969053;28;19930;-76
2023/02/24 03:41:29;;;;;;;;;;;9.80;75.00;;;8.41;59.84;100204.28;4951675;28;19934;-76
2023/02/24 03:43:57;;;;;;;;;;;9.80;75.20;;;8.41;59.88;100209.59;4947543;29;19990;-76
2023/02/24 03:46:25;;;;;;;;;;;9.80;75.20;;;8.42;59.60;100197.94;4957714;28;20406;-76
2023/02/24 03:48:57;;;;;;;;;;;9.80;75.00;;;8.42;59.71;100200.59;4931323;29;19931;-77
2023/02/24 03:51:24;;;;;;;;;;;9.70;75.00;;;8.42;59.61;100196.09;4943925;28;19937;-76
2023/02/24 03:54:11;;;;;;;;;;;9.80;75.00;;;8.40;59.71;100192.03;4960573;28;19930;-76
2023/02/24 03:56:46;;;;;;;;;;;9.80;75.10;;;8.43;59.50;100192.41;4949807;29;20026;-76
2023/02/24 03:59:26;;;;;;;;;;;9.70;75.00;;;8.44;59.00;100183.44;4933230;29;20364;-76
2023/02/24 04:01:58;;;;;;;;;;;9.70;74.50;;;8.39;59.14;100187.72;4931859;29;20017;-76
2023/02/24 04:04:38;;;;;;;;;;;9.70;74.60;;;8.38;59.17;100196.72;4959074;28;19938;-76
2023/02/24 04:07:29;;;;;;;;;;;9.70;74.50;;;8.34;59.12;100187.47;4932131;29;19931;-76
2023/02/24 04:10:08;;;;;;;;;;;9.70;74.50;;;8.33;59.13;100184.00;4915677;29;19937;-76
2023/02/24 04:12:41;;;;;;;;;;;9.70;74.50;;;8.32;59.16;100178.91;4931056;29;19934;-76
2023/02/24 04:15:14;;;;;;;;;;;9.70;74.50;;;8.35;59.06;100181.16;4933209;29;19934;-76
2023/02/24 04:17:46;;;;;;;;;;;9.70;74.50;;;8.34;58.82;100172.34;4951362;29;19930;-76
2023/02/24 04:20:19;;;;;;;;;;;9.70;74.30;;;8.33;59.14;100175.22;4948903;29;19930;-76
2023/02/24 04:22:56;;;;;;;;;;;9.70;74.30;;;8.33;58.76;100172.56;4943571;28;19937;-76
2023/02/24 04:25:26;;;;;;;;;;;9.70;74.40;;;8.28;58.99;100175.81;4934880;28;19941;-76
2023/02/24 04:27:58;;;;;;;;;;;9.60;74.30;;;8.27;58.89;100177.66;4930823;29;19930;-76
2023/02/24 04:30:28;;;;;;;;;;;9.60;74.20;;;8.33;58.79;100175.22;4937504;29;19931;-76
2023/02/24 04:32:56;;;;;;;;;;;9.60;74.30;;;8.31;59.10;100167.47;4942319;29;19930;-76
2023/02/24 04:35:26;;;;;;;;;;;9.60;74.40;;;8.33;58.83;100172.56;4947100;28;20350;-76
2023/02/24 04:37:54;;;;;;;;;;;9.60;74.40;;;8.30;58.92;100165.81;4959987;28;20246;-76
2023/02/24 04:40:22;;;;;;;;;;;9.60;74.50;;;8.29;58.90;100166.00;4917530;29;19966;-76
2023/02/24 04:42:52;;;;;;;;;;;9.60;74.50;;;8.29;59.11;100164.16;4932822;29;19926;-76
2023/02/24 04:45:21;;;;;;;;;;;9.60;74.50;;;8.25;59.37;100160.31;4941028;28;19930;-76
2023/02/24 04:47:50;;;;;;;;;;;9.60;74.60;;;8.23;59.34;100154.38;4942432;29;19937;-76
2023/02/24 04:50:22;;;;;;;;;;;9.60;74.60;;;8.24;59.02;100150.69;4946520;29;19930;-76
2023/02/24 04:52:51;;;;;;;;;;;9.50;74.50;;;8.20;59.09;100155.59;4934131;29;19932;-76
2023/02/24 04:55:20;;;;;;;;;;;9.50;74.70;;;8.23;59.10;100154.38;4943329;29;19931;-76
2023/02/24 04:57:47;;;;;;;;;;;9.50;74.70;;;8.24;58.85;100150.69;4927318;29;20026;-78
2023/02/24 05:00:25;;;;;;;;;;;9.50;74.50;;;8.22;58.96;100148.25;4940091;29;20037;-77
2023/02/24 05:02:54;;;;;;;;;;;9.50;74.40;;;8.18;58.90;100147.00;4942847;29;20052;-78
2023/02/24 05:05:24;;;;;;;;;;;9.50;74.50;;;8.21;59.02;100138.63;4940982;28;20461;-78
2023/02/24 05:07:51;;;;;;;;;;;9.50;74.50;;;8.19;59.15;100142.50;4950916;29;20325;-79
2023/02/24 05:10:19;;;;;;;;;;;9.50;74.50;;;8.21;59.00;100141.28;4950307;29;19933;-77
2023/02/24 05:12:46;;;;;;;;;;;9.50;74.50;;;8.19;59.23;100137.19;4932846;28;19938;-78
2023/02/24 05:15:12;;;;;;;;;;;9.50;74.60;;;8.21;58.94;100130.66;4914879;29;19927;-78
2023/02/24 05:17:41;;;;;;;;;;;9.50;74.60;;;8.17;59.09;100129.44;4936911;29;20040;-77
2023/02/24 05:22:55;;;;;;;;;;;9.50;74.80;;;8.19;59.13;100116.75;4940005;29;19931;-77
2023/02/24 05:25:24;;;;;;;;;;;9.50;74.80;;;8.16;59.41;100114.53;4938232;28;19927;-78
2023/02/24 05:27:51;;;;;;;;;;;9.50;74.80;;;8.12;59.78;100115.94;4950523;29;20380;-77
2023/02/24 05:30:18;;;;;;;;;;;9.50;75.20;;;8.16;59.81;100114.53;4938244;28;19927;-77
2023/02/24 05:32:46;;;;;;;;;;;9.50;75.40;;;8.15;59.63;100110.25;4932211;29;20512;-78
2023/02/24 05:35:13;;;;;;;;;;;9.50;75.20;;;8.10;60.05;100107.38;4945943;28;20024;-78
2023/02/24 05:37:41;;;;;;;;;;;9.50;75.40;;;8.16;59.70;100106.56;4952971;28;19926;-78
2023/02/24 05:40:14;;;;;;;;;;;9.40;75.20;;;8.15;59.65;100096.13;4952188;28;20008;-78
2023/02/24 05:42:44;;;;;;;;;;;9.40;75.30;;;8.15;59.59;100093.47;4939617;29;20042;-78
2023/02/24 05:45:11;;;;;;;;;;;9.60;75.30;;;8.16;59.82;100084.50;4932532;29;19930;-79
2023/02/24 05:47:38;;;;;;;;;;;9.50;75.40;;;8.17;59.85;100081.63;4932949;29;19933;-78
2023/02/24 05:50:10;;;;;;;;;;;9.40;75.40;;;8.17;59.88;100092.25;4934671;29;19949;-77
2023/02/24 05:52:37;;;;;;;;;;;9.40;75.40;;;8.17;59.76;100089.59;4932818;29;19930;-77
2023/02/24 05:55:12;;;;;;;;;;;9.40;75.40;;;8.13;59.85;100083.06;4947470;29;19930;-77
2023/02/24 05:57:40;;;;;;;;;;;9.40;75.30;;;8.14;59.69;100074.06;4941268;29;19942;-76
2023/02/24 06:00:15;;;;;;;;;;;9.40;75.40;;;8.13;59.69;100071.63;4946724;29;20455;-76
2023/02/24 06:02:48;;;;;;;;;;;9.40;75.60;;;8.12;59.94;100076.09;4934815;29;19982;-76
2023/02/24 06:05:26;;;;;;;;;;;9.40;75.50;;;8.13;59.88;100067.13;4933135;29;20475;-76
2023/02/24 06:08:03;;;;;;;;;;;9.40;75.60;;;8.16;59.94;100065.91;4931489;29;20716;-76
2023/02/24 06:10:32;;;;;;;;;;;9.40;75.60;;;8.14;59.85;100063.44;4936433;29;19957;-76
2023/02/24 06:13:00;;;;;;;;;;;9.40;75.60;;;8.11;60.10;100053.22;4953376;28;19980;-76
2023/02/24 06:15:27;;;;;;;;;;;9.40;75.60;;;8.09;60.12;100049.94;4944396;28;19931;-76
2023/02/24 06:17:55;;;;;;;;;;;9.30;75.80;;;8.10;59.72;100056.91;4934357;29;19937;-76
2023/02/24 06:20:49;;;;;;;;;;;9.40;75.60;;;8.10;59.76;100048.94;4932090;29;19931;-76
2023/02/24 06:23:17;;;;;;;;;;;9.40;75.50;;;8.07;59.65;100045.88;4932597;29;19930;-76
2023/02/24 06:25:45;;;;;;;;;;;9.30;75.50;;;8.06;59.84;100047.72;4934102;29;19966;-76
2023/02/24 06:28:12;;;;;;;;;;;9.30;75.60;;;8.06;59.68;100047.72;4933449;29;20399;-76
2023/02/24 06:30:39;;;;;;;;;;;9.30;75.30;;;8.08;59.51;100039.53;4936905;29;19934;-76
2023/02/24 06:33:06;;;;;;;;;;;9.30;75.40;;;8.03;59.80;100040.16;4933406;29;19933;-76
2023/02/24 06:35:33;;;;;;;;;;;9.30;75.40;;;8.06;59.63;100039.75;4933030;29;19931;-76
2023/02/24 06:38:01;;;;;;;;;;;9.30;75.50;;;8.05;59.58;100038.09;4933768;29;19931;-76
2023/02/24 06:40:30;;;;;;;;;;;9.30;75.40;;;8.08;59.53;100034.22;4932612;29;19946;-76
2023/02/24 06:42:57;;;;;;;;;;;9.30;75.60;;;8.04;59.88;100027.69;4935057;29;20390;-76
2023/02/24 06:45:25;;;;;;;;;;;9.30;75.70;;;8.07;59.68;100027.28;4951456;28;19935;-76
2023/02/24 06:47:52;;;;;;;;;;;9.20;75.40;;;8.05;59.81;100026.66;4952805;28;19982;-76
2023/02/24 06:50:20;;;;;;;;;;;9.20;75.60;;;8.05;59.58;100024.81;4946537;29;20021;-76
2023/02/24 06:52:47;;;;;;;;;;;9.30;75.60;;;8.05;59.71;100024.81;4937286;29;20428;-76
2023/02/24 06:55:25;;;;;;;;;;;9.20;75.40;;;8.04;59.56;100033.81;4940335;28;19950;-76
2023/02/24 06:57:55;;;;;;;;;;;9.30;75.40;;;8.07;59.42;100022.78;4934073;29;19954;-76
2023/02/24 07:00:35;;;;;;;;;;;9.30;75.40;;;8.10;59.41;100024.19;4951175;29;20040;-76
2023/02/24 07:03:13;;;;;;;;;;;9.30;75.20;;;8.09;59.08;100023.41;4953091;29;20310;-76
2023/02/24 07:05:42;;;;;;;;;;;9.30;75.20;;;8.05;59.18;100024.00;4936901;29;19930;-76
2023/02/24 07:08:09;;;;;;;;;;;9.30;75.20;;;8.05;59.12;100019.50;4952397;29;19930;-76
2023/02/24 07:10:37;;;;;;;;;;;9.30;75.20;;;8.04;58.87;100023.19;4967424;28;19927;-76
2023/02/24 07:13:05;;;;;;;;;;;9.20;74.70;;;8.00;58.78;100017.50;4952378;29;19973;-76
2023/02/24 07:15:35;;;;;;;;;;;9.20;74.70;;;8.01;58.92;100020.97;4952645;28;19930;-76
2023/02/24 07:18:03;;;;;;;;;;;9.20;74.90;;;8.02;59.06;100025.25;4967279;28;19997;-76
2023/02/24 07:20:33;;;;;;;;;;;9.20;75.00;;;8.05;58.92;100021.34;4945462;29;19934;-76
2023/02/24 07:23:01;;;;;;;;;;;9.20;74.90;;;8.02;59.16;100011.16;4952577;28;19937;-76
2023/02/24 07:25:32;;;;;;;;;;;9.20;74.80;;;8.02;58.74;100014.63;4952097;28;19932;-76
2023/02/24 07:28:01;;;;;;;;;;;9.20;74.80;;;8.04;59.04;100009.09;4952587;29;20354;-77
2023/02/24 07:30:29;;;;;;;;;;;9.20;75.00;;;8.03;59.24;100004.81;4944694;28;19946;-76
2023/02/24 07:32:56;;;;;;;;;;;9.20;75.10;;;8.02;59.30;100006.66;4932756;29;19966;-76
2023/02/24 07:35:23;;;;;;;;;;;9.20;75.20;;;7.99;59.19;99994.59;4932432;29;19935;-76
2023/02/24 07:37:51;;;;;;;;;;;9.30;75.40;;;7.97;58.87;99995.84;4942052;29;19991;-76
2023/02/24 07:40:20;;;;;;;;;;;9.20;74.80;;;8.00;58.83;99982.13;4949545;29;20041;-76
2023/02/24 07:42:48;;;;;;;;;;;9.20;74.90;;;8.00;58.76;99985.63;4951831;29;19937;-76
2023/02/24 07:45:17;;;;;;;;;;;9.20;74.50;;;7.97;58.43;99979.91;4947477;29;19953;-76
2023/02/24 07:47:44;;;;;;;;;;;9.10;74.50;;;7.97;58.52;99975.41;4937031;29;19931;-77
2023/02/24 07:50:17;;;;;;;;;;;9.40;74.70;;;7.93;58.69;99968.88;4934572;29;19930;-76
2023/02/24 07:52:44;;;;;;;;;;;9.10;74.60;;;7.96;58.40;99970.31;4943034;29;19930;-76
2023/02/24 07:55:11;;;;;;;;;;;9.10;74.40;;;7.98;58.30;99958.44;4951429;28;19934;-76
2023/02/24 07:57:40;;;;;;;;;;;9.10;74.40;;;7.97;57.90;99956.81;4949079;29;19934;-76
2023/02/24 08:00:18;;;;;;;;;;;9.10;73.90;;;7.96;58.03;99959.69;4931565;29;20414;-76
2023/02/24 08:02:48;;;;;;;;;;;9.00;74.20;;;7.91;58.47;99959.50;4931488;29;19926;-74
2023/02/24 08:05:16;;;;;;;;;;;9.00;74.60;;;7.92;58.68;99956.63;4941530;28;19926;-76
2023/02/24 08:07:48;;;;;;;;;;;9.00;74.50;;;7.93;58.49;99955.59;4951187;28;19941;-76
2023/02/24 08:10:24;;;;;;;;;;;9.10;74.60;;;7.93;58.29;99941.50;4951833;29;20388;-76
2023/02/24 08:12:54;;;;;;;;;;;9.10;74.10;;;7.86;58.16;99930.09;4951446;29;19985;-76
2023/02/24 08:15:24;;;;;;;;;;;9.10;74.30;;;7.88;58.58;99925.38;4945643;29;19938;-76
2023/02/24 08:17:58;;;;;;;;;;;9.10;74.20;;;7.91;58.05;99927.63;4934942;29;20760;-76
2023/02/24 08:20:25;;;;;;;;;;;9.10;73.70;;;7.94;57.78;99919.25;4951505;29;20324;-76
2023/02/24 08:22:53;;;;;;;;;;;9.10;73.60;;;7.92;57.92;99914.16;4951605;29;19954;-76
2023/02/24 08:25:22;;;;;;;;;;;9.10;73.70;;;7.96;57.46;99920.69;4951380;28;20016;-76
2023/02/24 08:27:55;;;;;;;;;;;9.10;73.60;;;7.89;57.70;99911.91;4951221;29;19931;-76
2023/02/24 08:30:24;;;;;;;;;;;9.00;73.50;;;7.91;57.88;99917.03;4951222;29;19933;-76
2023/02/24 08:32:56;;;;;;;;;;;9.00;73.50;;;7.84;57.39;99917.00;4939451;29;19933;-76
2023/02/24 08:35:30;;;;;;;;;;;9.00;73.10;;;7.78;56.78;99911.72;4950933;28;20160;-76
2023/02/24 08:38:03;;;;;;;;;;;9.00;72.50;;;7.82;57.13;99912.94;4951379;29;20430;-76
2023/02/24 08:40:48;;;;;;;;;;;9.00;73.30;;;7.82;57.35;99915.59;4951480;29;19934;-76
2023/02/24 08:43:23;;;;;;;;;;;9.00;73.10;;;7.75;58.41;99907.63;4947802;29;19927;-76
2023/02/24 08:45:52;;;;;;;;;;;8.90;74.20;;;7.81;58.61;99905.97;4931914;29;19974;-76
2023/02/24 08:48:31;;;;;;;;;;;9.00;74.60;;;7.84;58.46;99895.78;4928856;29;19952;-76
2023/02/24 08:51:00;;;;;;;;;;;9.00;74.50;;;7.83;57.44;99888.03;4939205;29;19931;-76
2023/02/24 08:53:30;;;;;;;;;;;8.90;73.50;;;7.71;58.27;99886.03;4942644;29;19934;-76
2023/02/24 08:55:58;;;;;;;;;;;8.90;74.10;;;7.73;57.64;99883.16;4950931;28;19930;-76
2023/02/24 08:58:26;;;;;;;;;;;8.90;73.70;;;7.69;58.55;99889.88;4942425;29;20029;-76
2023/02/24 09:00:55;;;;;;;;;;;8.80;74.70;;;7.62;58.76;99881.94;4919735;29;19982;-76
2023/02/24 09:03:32;;;;;;;;;;;8.80;74.60;;;7.64;58.74;99877.22;4949481;29;19930;-77
2023/02/24 09:06:02;;;;;;;;;;;8.80;74.50;;;7.66;58.64;99877.88;4950903;28;20007;-76
2023/02/24 09:08:32;;;;;;;;;;;8.80;75.00;;;7.71;58.89;99872.75;4941884;29;19931;-76
2023/02/24 09:11:00;;;;;;;;;;;8.80;75.20;;;7.79;59.02;99868.22;4931671;29;19935;-76
2023/02/24 09:13:31;;;;;;;;;;;8.80;75.40;;;7.64;57.99;99868.47;4935951;29;19930;-76
2023/02/24 09:16:00;;;;;;;;;;;8.80;73.90;;;7.62;58.84;99863.38;4940672;29;19934;-76
2023/02/24 09:18:37;;;;;;;;;;;8.80;74.80;;;7.60;57.87;99862.75;4950406;29;19930;-76
2023/02/24 09:24:02;;;;;;;;;;;8.80;74.40;;;7.66;58.52;99859.28;4941300;29;19926;-76
2023/02/24 09:26:31;;;;;;;;;;;8.80;74.80;;;7.63;58.91;99854.38;4953413;28;19966;-76
2023/02/24 09:28:59;;;;;;;;;;;8.70;75.10;;;7.61;58.87;99850.28;4954358;28;19933;-76
2023/02/24 09:31:39;;;;;;;;;;;8.70;75.40;;;7.52;59.07;99855.03;4947850;29;19942;-76
2023/02/24 09:34:14;;;;;;;;;;;8.70;75.20;;;7.45;58.96;99848.88;4928478;29;19927;-76
2023/02/24 09:37:00;;;;;;;;;;;8.70;75.20;;;7.42;59.38;99841.38;4974803;23;19932;-88
2023/02/24 09:39:27;;;;;;;;;;;8.70;75.20;;;7.41;58.94;99831.75;4991590;28;19930;-88
2023/02/24 09:41:55;;;;;;;;;;;8.60;74.90;;;7.44;58.78;99831.34;4992874;28;20354;-89
2023/02/24 09:44:32;;;;;;;;;;;8.60;74.90;;;7.48;58.79;99832.56;4975762;28;19934;-87
2023/02/24 09:47:07;;;;;;;;;;;8.60;75.00;;;7.57;58.83;99826.03;4986813;28;19926;-89
2023/02/24 09:49:47;;;;;;;;;;;8.70;75.20;;;7.62;59.33;99826.22;4985258;28;19940;-89
2023/02/24 09:52:17;;;;;;;;;;;8.70;75.60;;;7.65;59.05;99817.81;4985280;28;19977;-88
2023/02/24 09:55:17;;;;;;;;;;;8.70;75.30;;;7.69;59.23;99819.03;4974158;28;19929;-88
2023/02/24 09:58:22;;;;;;;;;;;8.80;75.40;;;7.75;59.08;99812.88;4974160;28;19957;-88
2023/02/24 10:00:42;;;;;;;;;;;8.80;75.40;;;7.71;58.09;99805.56;4992268;28;19933;-89
2023/02/24 10:03:19;;;;;;;;;;;8.80;74.30;;;7.67;57.98;99804.38;4991611;28;20310;-88
2023/02/24 10:05:57;;;;;;;;;;;8.80;74.30;;;7.51;58.03;99794.19;4974509;28;19930;-92
2023/02/24 10:08:31;;;;;;;;;;;8.70;74.20;;;7.47;58.40;99789.31;4981907;28;19930;-89
2023/02/24 10:11:06;;;;;;;;;;;8.70;74.40;;;7.56;58.07;99791.72;4991151;28;19926;-89
2023/02/24 10:13:37;;;;;;;;;;;8.70;74.00;;;7.53;58.00;99785.00;4993034;28;19925;-91
2023/02/24 10:16:09;;;;;;;;;;;8.70;74.10;;;7.53;58.77;99778.88;4975169;28;20446;-89
2023/02/24 10:18:42;;;;;;;;;;;8.60;74.70;;;7.55;58.40;99785.59;4975090;28;20305;-90
2023/02/24 10:21:19;;;;;;;;;;;8.70;74.70;;;7.61;58.05;99774.19;4991652;28;20452;-89
2023/02/24 10:24:00;;;;;;;;;;;8.70;74.30;;;7.42;57.68;99765.25;4981076;28;19945;-89
2023/02/24 10:26:33;;;;;;;;;;;8.60;73.50;;;7.32;58.15;99769.31;4963813;28;19962;-89
2023/02/24 10:29:07;;;;;;;;;;;8.60;74.00;;;7.45;58.16;99766.66;4972847;28;19952;-90
2023/02/24 10:31:41;;;;;;;;;;;8.60;74.00;;;7.43;59.14;99760.75;4968664;28;20025;-89
2023/02/24 10:34:10;;;;;;;;;;;8.70;75.00;;;7.48;59.45;99763.59;4953567;29;19936;-90
2023/02/24 10:36:39;;;;;;;;;;;8.60;75.20;;;7.59;58.49;99748.84;4953167;28;20017;-90
2023/02/24 10:39:14;;;;;;;;;;;8.70;74.70;;;7.51;58.25;99743.78;4962464;28;19930;-90
2023/02/24 10:41:45;;;;;;;;;;;8.70;74.30;;;7.45;58.64;99748.88;4970389;28;19937;-91
2023/02/24 10:44:19;;;;;;;;;;;8.60;74.90;;;7.37;58.43;99745.63;4965944;28;20357;-91
2023/02/24 10:46:48;;;;;;;;;;;8.60;74.70;;;7.35;59.18;99753.81;4971006;28;19940;-90
2023/02/24 10:49:17;;;;;;;;;;;8.50;75.10;;;7.20;59.60;99751.41;4952329;28;20662;-91
2023/02/24 10:51:51;;;;;;;;;;;8.40;75.70;;;7.11;60.43;99752.63;4954587;28;19934;-89
2023/02/24 10:54:32;;;;;;;;;;;8.40;76.00;;;7.16;60.95;99741.41;4950551;28;19930;-89
2023/02/24 10:59:57;;;;;;;;;;;8.40;77.20;;;7.22;61.33;99729.97;4970656;28;19930;-89
2023/02/24 11:02:31;;;;;;;;;;;8.50;77.80;;;7.19;61.30;99725.91;4963618;28;20419;-86
2023/02/24 11:05:23;;;;;;;;;;;8.40;77.40;;;7.29;61.51;99722.00;4954458;28;19930;-86
2023/02/24 11:08:06;;;;;;;;;;;8.40;78.00;;;7.36;61.48;99722.78;4962361;28;19957;-81
2023/02/24 11:10:51;;;;;;;;;;;8.40;78.00;;;7.36;61.67;99717.50;4963045;28;19936;-85
2023/02/24 11:18:53;;;;;;;;;;;8.50;78.40;;;7.17;62.25;99696.16;4969598;28;20021;-85
2023/02/24 11:21:24;;;;;;;;;;;8.40;78.40;;;7.14;62.24;99688.59;4971234;28;20017;-84
2023/02/24 11:23:54;;;;;;;;;;;8.30;78.80;;;7.22;62.92;99688.38;4956719;28;19969;-84
2023/02/24 11:26:24;;;;;;;;;;;8.30;79.30;;;7.31;63.25;99688.13;4980765;28;19947;-85
2023/02/24 11:29:05;;;;;;;;;;;8.30;79.80;;;7.34;63.10;99671.81;4971105;28;20742;-84
2023/02/24 11:31:47;;;;;;;;;;;8.40;79.80;;;7.22;63.07;99680.44;4970015;28;20314;-84
2023/02/24 11:34:23;;;;;;;;;;;8.40;79.60;;;7.20;63.67;99665.72;4965845;28;20296;-85
2023/02/24 11:36:55;;;;;;;;;;;8.40;80.00;;;7.27;63.70;99657.75;4957407;28;19954;-87
2023/02/24 11:39:37;;;;;;;;;;;8.40;80.40;;;7.19;63.75;99654.31;4959758;28;20032;-86
2023/02/24 11:42:09;;;;;;;;;;;8.40;80.10;;;7.09;64.37;99659.25;4947614;28;19978;-86
2023/02/24 11:44:45;;;;;;;;;;;8.30;80.60;;;6.93;64.49;99652.56;4960835;28;20399;-86
2023/02/24 11:47:16;;;;;;;;;;;8.20;80.40;;;6.91;64.88;99643.16;4960650;28;20387;-83
2023/02/24 11:49:46;;;;;;;;;;;8.10;80.60;;;6.97;65.16;99643.16;4960875;28;19933;-85
2023/02/24 11:52:16;;;;;;;;;;;8.20;81.10;;;6.96;64.85;99638.06;4958917;28;19930;-88
2023/02/24 11:54:49;;;;;;;;;;;8.20;81.00;;;7.03;65.09;99638.88;4972484;28;19953;-87
2023/02/24 11:57:19;;;;;;;;;;;8.30;81.30;;;7.02;64.81;99631.91;4967663;28;19930;-87
2023/02/24 11:59:52;;;;;;;;;;;8.20;81.20;;;7.11;64.65;99628.03;4970061;28;20016;-86
2023/02/24 12:02:29;;;;;;;;;;;8.30;81.20;;;7.14;64.79;99626.81;4955246;28;19985;-88
2023/02/24 12:05:00;;;;;;;;;;;8.30;81.40;;;7.13;64.88;99623.34;4969714;28;20465;-86